Time;durP1;ratioP1;P1;durP2;ratioP2;P2;SDS_P1;SDS_P2;PMS_P1;PMS_P2;Temp;Humidity;BMP_temperature;BMP_pressure;BME280_temperature;BME280_humidity;BME280_pressure;Samples;Min_cycle;Max_cycle;Signal;HPM_P1;HPM_P2
2021/03/07 00:01:06;;;;;;;14.20;7.97;;;;;;;-1.69;77.45;96847.28;5090149;28;20280;-63
2021/03/07 00:03:33;;;;;;;16.17;8.37;;;;;;;-1.57;76.93;96845.03;5090615;28;20198;-63
2021/03/07 00:06:00;;;;;;;14.77;7.23;;;;;;;-1.57;76.44;96852.69;5090410;28;20232;-63
2021/03/07 00:08:34;;;;;;;14.57;8.00;;;;;;;-1.56;76.53;96846.63;5090665;28;20206;-63
2021/03/07 00:11:02;;;;;;;14.60;8.33;;;;;;;-1.57;77.25;96847.59;5090459;28;20203;-63
2021/03/07 00:13:29;;;;;;;13.97;7.43;;;;;;;-1.61;78.10;96846.38;5090310;28;20290;-63
2021/03/07 00:15:57;;;;;;;13.23;7.40;;;;;;;-1.62;78.64;96844.81;5090365;28;20277;-63
2021/03/07 00:18:23;;;;;;;13.60;7.87;;;;;;;-1.60;79.60;96837.78;5090269;28;20234;-62
2021/03/07 00:20:50;;;;;;;15.80;8.60;;;;;;;-1.61;79.64;96838.75;5090153;28;20225;-63
2021/03/07 00:23:17;;;;;;;17.07;8.87;;;;;;;-1.65;79.35;96840.09;5090199;28;20732;-63
2021/03/07 00:25:44;;;;;;;17.03;10.00;;;;;;;-1.70;79.54;96838.09;5090282;28;20256;-62
2021/03/07 00:28:12;;;;;;;15.77;9.47;;;;;;;-1.63;79.23;96838.91;5090240;28;20248;-63
2021/03/07 00:30:39;;;;;;;22.73;10.70;;;;;;;-1.60;79.10;96836.03;5090099;28;20274;-63
2021/03/07 00:33:07;;;;;;;18.63;10.13;;;;;;;-1.62;79.17;96832.06;5089921;28;20199;-63
2021/03/07 00:35:34;;;;;;;19.07;10.27;;;;;;;-1.65;79.10;96833.22;5090258;28;20210;-63
2021/03/07 00:38:01;;;;;;;19.40;10.70;;;;;;;-1.74;79.39;96837.66;5089843;28;20690;-63
2021/03/07 00:40:28;;;;;;;19.30;10.13;;;;;;;-1.77;80.16;96830.38;5089982;28;20271;-62
2021/03/07 00:42:55;;;;;;;17.67;9.70;;;;;;;-1.80;79.71;96835.06;5090074;28;20702;-63
2021/03/07 00:45:25;;;;;;;15.63;9.50;;;;;;;-1.80;80.33;96830.75;5090063;28;20286;-63
2021/03/07 00:47:52;;;;;;;16.80;9.30;;;;;;;-1.85;79.70;96825.41;5090417;28;20198;-63
2021/03/07 00:50:22;;;;;;;22.60;10.17;;;;;;;-1.79;78.63;96823.88;5090094;28;20680;-63
2021/03/07 00:52:49;;;;;;;20.17;9.33;;;;;;;-1.84;77.76;96816.00;5089925;28;20231;-62
2021/03/07 00:55:16;;;;;;;16.93;9.67;;;;;;;-1.92;78.24;96813.56;5090033;28;20240;-62
2021/03/07 00:57:43;;;;;;;16.13;8.80;;;;;;;-1.94;79.49;96818.84;5090097;28;20704;-63
2021/03/07 01:00:13;;;;;;;20.10;10.10;;;;;;;-2.04;78.97;96820.16;5089562;28;20780;-62
2021/03/07 01:02:42;;;;;;;21.40;9.00;;;;;;;-2.07;78.68;96826.38;5089965;28;20651;-62
2021/03/07 01:05:10;;;;;;;17.43;9.57;;;;;;;-2.10;77.79;96820.84;5089791;28;20199;-63
2021/03/07 01:07:37;;;;;;;18.07;9.83;;;;;;;-2.17;77.67;96816.47;5089985;28;20686;-62
2021/03/07 01:10:11;;;;;;;16.63;9.40;;;;;;;-2.20;77.24;96813.53;5089652;28;20232;-62
2021/03/07 01:12:39;;;;;;;20.83;10.63;;;;;;;-2.24;77.35;96814.81;5090396;28;20301;-62
2021/03/07 01:15:08;;;;;;;15.73;7.97;;;;;;;-2.26;77.17;96816.78;5089662;28;20336;-62
2021/03/07 01:17:35;;;;;;;16.30;8.40;;;;;;;-2.30;76.90;96820.66;5089728;28;20714;-63
2021/03/07 01:20:09;;;;;;;17.43;9.53;;;;;;;-2.32;77.00;96817.50;5092122;28;20316;-62
2021/03/07 01:22:35;;;;;;;22.17;10.30;;;;;;;-2.29;76.27;96809.50;5093702;28;20209;-61
2021/03/07 01:25:03;;;;;;;18.73;9.83;;;;;;;-2.43;77.16;96811.09;5093595;28;20700;-63
2021/03/07 01:27:30;;;;;;;27.00;12.17;;;;;;;-2.53;78.09;96814.91;5093427;28;20207;-61
2021/03/07 01:29:57;;;;;;;36.90;14.57;;;;;;;-2.65;77.67;96823.00;5093259;28;20230;-62
2021/03/07 01:32:26;;;;;;;31.90;14.87;;;;;;;-2.72;78.42;96817.03;5093323;28;20648;-62
2021/03/07 01:34:52;;;;;;;25.23;12.13;;;;;;;-2.81;79.28;96812.22;5093281;28;20233;-63
2021/03/07 01:37:20;;;;;;;18.20;9.97;;;;;;;-2.81;79.53;96807.94;5093283;28;20336;-63
2021/03/07 01:39:47;;;;;;;19.33;9.33;;;;;;;-2.82;78.95;96808.88;5093245;28;20316;-62
2021/03/07 01:42:14;;;;;;;15.97;9.50;;;;;;;-2.79;79.52;96811.06;5093050;28;20673;-63
2021/03/07 01:44:42;;;;;;;18.20;8.90;;;;;;;-2.97;79.51;96813.19;5093408;28;20197;-63
2021/03/07 01:47:09;;;;;;;17.40;9.33;;;;;;;-3.07;79.84;96793.13;5093495;28;20287;-62
2021/03/07 01:49:37;;;;;;;16.63;10.10;;;;;;;-2.95;79.66;96806.19;5093357;28;20197;-62
2021/03/07 01:52:04;;;;;;;18.07;9.77;;;;;;;-2.99;79.07;96799.88;5092928;28;20195;-63
2021/03/07 01:54:32;;;;;;;21.20;10.90;;;;;;;-3.01;79.50;96795.94;5092922;28;20223;-62
2021/03/07 01:57:01;;;;;;;17.83;10.77;;;;;;;-2.98;79.77;96803.97;5093039;28;20197;-61
2021/03/07 01:59:33;;;;;;;21.07;10.97;;;;;;;-2.99;80.12;96799.88;5092401;28;20232;-62
2021/03/07 02:02:01;;;;;;;23.07;11.40;;;;;;;-3.03;79.84;96798.63;5092886;28;20243;-62
2021/03/07 02:04:29;;;;;;;20.27;11.17;;;;;;;-3.08;79.89;96791.53;5092332;28;20281;-62
2021/03/07 02:06:55;;;;;;;22.83;11.80;;;;;;;-2.98;78.92;96798.91;5093166;28;20774;-62
2021/03/07 02:09:23;;;;;;;18.70;10.03;;;;;;;-3.04;79.08;96792.00;5092590;28;20747;-61
2021/03/07 02:11:52;;;;;;;15.13;8.63;;;;;;;-3.05;78.69;96792.97;5092589;28;20225;-62
2021/03/07 02:14:19;;;;;;;16.67;8.53;;;;;;;-3.13;77.93;96793.03;5092607;28;20195;-63
2021/03/07 02:16:47;;;;;;;14.33;8.43;;;;;;;-3.12;78.08;96789.53;5092498;28;20700;-63
2021/03/07 02:19:16;;;;;;;15.60;7.80;;;;;;;-3.17;78.31;96789.25;5092437;28;20275;-62
2021/03/07 02:21:46;;;;;;;12.70;7.57;;;;;;;-3.22;77.38;96789.78;5092438;28;20237;-63
2021/03/07 02:24:16;;;;;;;11.50;6.87;;;;;;;-3.46;77.48;96797.66;5092370;28;20204;-63
2021/03/07 02:26:46;;;;;;;12.53;7.47;;;;;;;-3.77;78.02;96785.06;5092359;28;20250;-63
2021/03/07 02:29:14;;;;;;;13.27;6.80;;;;;;;-3.75;78.45;96782.38;5092391;28;20280;-63
2021/03/07 02:31:44;;;;;;;11.47;6.50;;;;;;;-3.84;79.58;96784.19;5090867;28;20691;-63
2021/03/07 02:34:18;;;;;;;11.70;7.10;;;;;;;-3.86;78.79;96783.56;5092067;28;20695;-63
2021/03/07 02:36:50;;;;;;;59.03;19.47;;;;;;;-3.93;79.24;96773.28;5092147;28;20290;-63
2021/03/07 02:39:20;;;;;;;36.47;15.13;;;;;;;-3.86;79.53;96778.47;5092135;28;20311;-63
2021/03/07 02:41:48;;;;;;;38.37;14.00;;;;;;;-3.91;79.41;96775.66;5092371;28;20193;-63
2021/03/07 02:44:18;;;;;;;15.17;7.90;;;;;;;-3.92;79.31;96774.09;5091869;28;20601;-63
2021/03/07 02:46:47;;;;;;;14.00;7.83;;;;;;;-3.89;78.50;96773.75;5092167;28;20529;-62
2021/03/07 02:49:17;;;;;;;13.63;6.40;;;;;;;-3.83;77.72;96773.06;5092144;28;20254;-63
2021/03/07 02:51:46;;;;;;;15.03;8.10;;;;;;;-3.78;78.65;96778.41;5091968;28;20862;-62
2021/03/07 02:54:15;;;;;;;16.30;7.53;;;;;;;-3.84;79.01;96771.50;5091821;28;20200;-63
2021/03/07 02:56:48;;;;;;;14.57;8.10;;;;;;;-3.83;78.97;96775.59;5091683;28;20192;-63
2021/03/07 02:59:16;;;;;;;17.10;8.93;;;;;;;-3.80;79.17;96777.81;5091678;28;20299;-64
2021/03/07 03:01:44;;;;;;;16.17;8.97;;;;;;;-3.88;79.32;96769.47;5091689;28;20283;-62
2021/03/07 03:04:14;;;;;;;17.07;9.30;;;;;;;-4.03;80.60;96770.19;5091498;28;20279;-63
2021/03/07 03:06:44;;;;;;;17.17;8.90;;;;;;;-4.16;81.14;96774.28;5091622;28;20282;-63
2021/03/07 03:09:12;;;;;;;18.50;9.63;;;;;;;-4.03;80.39;96769.41;5091419;28;20231;-63
2021/03/07 03:11:41;;;;;;;18.13;10.03;;;;;;;-3.96;80.82;96776.19;5091586;28;20589;-63
2021/03/07 03:14:12;;;;;;;17.57;9.87;;;;;;;-4.00;80.66;96774.16;5091404;28;20232;-62
2021/03/07 03:16:42;;;;;;;22.13;9.87;;;;;;;-3.99;80.97;96775.75;5091480;28;20224;-62
2021/03/07 03:19:10;;;;;;;17.27;9.73;;;;;;;-3.97;81.27;96778.88;5091213;28;20311;-63
2021/03/07 03:21:39;;;;;;;20.60;10.53;;;;;;;-3.96;80.38;96781.25;5091286;28;20722;-63
2021/03/07 03:24:09;;;;;;;19.00;9.73;;;;;;;-4.06;80.88;96772.28;5091229;28;20193;-62
2021/03/07 03:26:36;;;;;;;25.77;10.23;;;;;;;-4.08;80.39;96771.66;5091762;28;20739;-63
2021/03/07 03:29:04;;;;;;;19.77;10.10;;;;;;;-4.10;80.92;96773.59;5090975;28;20288;-63
2021/03/07 03:31:33;;;;;;;15.27;9.77;;;;;;;-4.13;80.78;96769.63;5091405;28;20205;-62
2021/03/07 03:34:02;;;;;;;19.80;10.77;;;;;;;-4.15;80.69;96770.78;5091026;28;20814;-62
2021/03/07 03:36:30;;;;;;;18.83;11.07;;;;;;;-4.19;80.86;96767.81;5090844;28;20578;-62
2021/03/07 03:39:01;;;;;;;18.37;10.87;;;;;;;-4.24;81.40;96774.34;5091116;28;20250;-63
2021/03/07 03:41:34;;;;;;;19.27;10.60;;;;;;;-4.32;81.77;96765.03;5091034;28;20192;-62
2021/03/07 03:44:06;;;;;;;19.57;10.33;;;;;;;-4.29;81.72;96768.97;5090831;28;20284;-62
2021/03/07 03:46:39;;;;;;;17.17;9.93;;;;;;;-4.40;81.38;96770.94;5090778;28;20224;-63
2021/03/07 03:49:14;;;;;;;16.20;9.40;;;;;;;-4.43;82.08;96763.66;5090748;28;20232;-62
2021/03/07 03:51:43;;;;;;;17.00;9.63;;;;;;;-4.44;81.79;96769.72;5090699;28;20282;-63
2021/03/07 03:54:12;;;;;;;15.83;9.73;;;;;;;-4.42;82.36;96770.31;5090855;28;20750;-64
2021/03/07 03:56:43;;;;;;;20.00;9.87;;;;;;;-4.41;81.83;96766.03;5090598;28;20242;-62
2021/03/07 03:59:13;;;;;;;15.37;9.87;;;;;;;-4.47;82.35;96770.03;5090756;28;20220;-62
2021/03/07 04:01:42;;;;;;;20.30;10.23;;;;;;;-4.50;81.61;96767.84;5090340;28;20232;-62
2021/03/07 04:04:10;;;;;;;18.07;10.10;;;;;;;-4.62;81.91;96774.22;5090566;28;20554;-63
2021/03/07 04:06:38;;;;;;;17.43;10.33;;;;;;;-4.67;82.42;96773.16;5090438;28;20256;-63
2021/03/07 04:09:06;;;;;;;18.37;9.70;;;;;;;-4.70;82.33;96779.34;5090289;28;20195;-63
2021/03/07 04:11:34;;;;;;;17.30;9.40;;;;;;;-4.75;82.52;96773.19;5090384;28;20733;-63
2021/03/07 04:14:02;;;;;;;17.30;10.13;;;;;;;-4.87;81.28;96775.31;5090496;28;20196;-62
2021/03/07 04:16:29;;;;;;;27.73;11.10;;;;;;;-5.03;81.33;96775.41;5090932;28;20195;-63
2021/03/07 04:18:57;;;;;;;16.73;10.00;;;;;;;-5.07;81.59;96774.13;5090158;28;20338;-63
2021/03/07 04:21:24;;;;;;;17.47;10.20;;;;;;;-5.20;82.20;96772.13;5090486;28;20219;-62
2021/03/07 04:23:52;;;;;;;20.03;10.33;;;;;;;-5.27;83.22;96771.97;5090252;28;20578;-63
2021/03/07 04:26:21;;;;;;;18.70;10.67;;;;;;;-5.32;83.37;96776.72;5090093;28;20283;-62
2021/03/07 04:28:49;;;;;;;19.67;11.13;;;;;;;-5.41;84.07;96767.56;5090049;28;20191;-63
2021/03/07 04:31:16;;;;;;;19.03;11.07;;;;;;;-5.34;84.68;96763.47;5090222;28;20639;-62
2021/03/07 04:33:43;;;;;;;21.30;10.67;;;;;;;-5.31;84.92;96775.78;5090623;28;20200;-62
2021/03/07 04:36:11;;;;;;;20.97;11.27;;;;;;;-5.25;84.62;96766.75;5090045;28;20192;-62
2021/03/07 04:38:38;;;;;;;20.90;11.43;;;;;;;-5.17;84.55;96770.97;5090092;28;20601;-62
2021/03/07 04:41:05;;;;;;;20.70;11.37;;;;;;;-5.22;83.73;96767.19;5089965;28;20279;-62
2021/03/07 04:43:46;;;;;;;18.50;10.70;;;;;;;-5.22;84.01;96771.47;5090223;28;20247;-62
2021/03/07 04:46:13;;;;;;;22.63;12.23;;;;;;;-5.24;83.25;96774.19;5090605;28;20326;-62
2021/03/07 04:48:40;;;;;;;24.10;12.97;;;;;;;-5.18;83.40;96772.75;5090666;28;20278;-62
2021/03/07 04:51:07;;;;;;;23.43;13.70;;;;;;;-5.09;83.16;96766.69;5090245;28;20192;-62
2021/03/07 04:53:35;;;;;;;22.43;12.47;;;;;;;-5.14;84.24;96770.69;5089848;28;20282;-62
2021/03/07 04:56:02;;;;;;;21.27;12.37;;;;;;;-5.13;83.88;96779.88;5094690;28;20207;-62
2021/03/07 04:58:29;;;;;;;23.70;12.63;;;;;;;-5.16;84.74;96777.63;5094211;28;20202;-62
2021/03/07 05:00:55;;;;;;;21.53;11.70;;;;;;;-5.17;85.24;96779.38;5093738;28;20800;-61
2021/03/07 05:03:22;;;;;;;25.77;12.53;;;;;;;-5.05;85.25;96777.28;5094217;28;20192;-62
2021/03/07 05:05:49;;;;;;;27.93;16.17;;;;;;;-4.97;84.90;96779.78;5093956;28;20218;-62
2021/03/07 05:08:16;;;;;;;31.53;17.47;;;;;;;-5.00;85.22;96775.84;5093777;28;20241;-63
2021/03/07 05:10:44;;;;;;;22.87;12.77;;;;;;;-4.95;85.06;96783.75;5093755;28;20282;-62
2021/03/07 05:13:12;;;;;;;27.83;13.17;;;;;;;-4.94;84.79;96779.47;5093756;28;20196;-62
2021/03/07 05:15:39;;;;;;;25.30;12.80;;;;;;;-4.85;85.89;96775.94;5093662;28;20192;-62
2021/03/07 05:18:07;;;;;;;23.10;12.50;;;;;;;-4.69;85.31;96770.00;5093572;28;20243;-63
2021/03/07 05:20:34;;;;;;;21.80;12.57;;;;;;;-4.65;85.96;96774.56;5093579;28;20223;-63
2021/03/07 05:23:01;;;;;;;31.50;13.17;;;;;;;-4.55;85.26;96776.91;5093582;28;20187;-63
2021/03/07 05:25:28;;;;;;;24.20;12.63;;;;;;;-4.47;86.07;96777.63;5093496;28;20227;-62
2021/03/07 05:27:56;;;;;;;22.23;11.13;;;;;;;-4.42;84.54;96777.13;5093430;28;20192;-62
2021/03/07 05:30:24;;;;;;;25.40;12.93;;;;;;;-4.44;84.06;96777.31;5093290;28;20283;-62
2021/03/07 05:32:52;;;;;;;23.67;13.13;;;;;;;-4.42;84.65;96784.75;5093442;28;20648;-61
2021/03/07 05:35:20;;;;;;;23.73;13.50;;;;;;;-4.31;85.25;96784.38;5093427;28;20222;-63
2021/03/07 05:37:47;;;;;;;28.63;14.53;;;;;;;-4.19;84.54;96789.84;5093158;28;20758;-62
2021/03/07 05:40:14;;;;;;;32.37;14.53;;;;;;;-4.10;85.56;96788.81;5093139;28;20227;-63
2021/03/07 05:42:41;;;;;;;25.17;15.10;;;;;;;-4.03;85.69;96785.44;5093043;28;20297;-61
2021/03/07 05:45:11;;;;;;;30.73;17.40;;;;;;;-3.96;85.01;96788.09;5093440;28;20762;-61
2021/03/07 05:47:37;;;;;;;34.60;17.33;;;;;;;-3.85;85.75;96787.69;5093052;28;20283;-61
2021/03/07 05:50:06;;;;;;;40.57;19.77;;;;;;;-3.79;85.85;96789.53;5093040;28;20651;-63
2021/03/07 05:52:33;;;;;;;38.63;21.80;;;;;;;-3.69;86.80;96790.09;5093301;28;20191;-63
2021/03/07 05:55:01;;;;;;;46.20;22.23;;;;;;;-3.49;86.26;96792.94;5092937;28;20248;-63
2021/03/07 05:57:31;;;;;;;46.73;23.50;;;;;;;-3.41;86.80;96792.06;5093034;28;20583;-62
2021/03/07 06:00:00;;;;;;;43.30;23.33;;;;;;;-3.25;86.52;96790.16;5092674;28;20252;-62
2021/03/07 06:02:28;;;;;;;41.53;21.07;;;;;;;-3.08;85.55;96781.38;5092954;28;20212;-63
2021/03/07 06:04:55;;;;;;;44.43;21.10;;;;;;;-2.70;86.03;96774.41;5092751;28;20193;-63
2021/03/07 06:07:22;;;;;;;40.27;20.23;;;;;;;-1.19;84.72;96774.13;5092835;28;20251;-64
2021/03/07 06:10:16;;;;;;;41.20;20.17;;;;;;;0.80;75.91;96782.75;5092925;28;20666;-63
2021/03/07 06:12:45;;;;;;;37.57;20.77;;;;;;;2.14;68.14;96781.78;5092632;28;20193;-62
2021/03/07 06:15:13;;;;;;;36.87;20.13;;;;;;;3.37;63.82;96779.25;5092639;28;20229;-64
2021/03/07 06:17:42;;;;;;;29.63;17.23;;;;;;;3.70;58.29;96777.06;5092773;28;20231;-64
2021/03/07 06:20:12;;;;;;;47.77;28.93;;;;;;;4.20;55.61;96787.81;5092372;28;20231;-62
2021/03/07 06:22:40;;;;;;;29.50;17.03;;;;;;;3.70;56.01;96771.13;5092370;28;20279;-63
2021/03/07 06:25:13;;;;;;;27.47;15.53;;;;;;;3.15;57.31;96784.03;5093018;28;20191;-63
2021/03/07 06:27:40;;;;;;;25.63;12.30;;;;;;;2.64;60.40;96775.88;5092400;28;20690;-63
2021/03/07 06:30:10;;;;;;;19.67;11.50;;;;;;;2.09;61.55;96775.72;5092407;28;20621;-63
2021/03/07 06:32:39;;;;;;;16.70;10.70;;;;;;;1.78;63.76;96771.38;5092417;28;20249;-62
2021/03/07 06:35:09;;;;;;;19.90;11.87;;;;;;;1.85;62.79;96779.81;5092263;28;20337;-64
2021/03/07 06:37:56;;;;;;;20.50;12.97;;;;;;;1.78;62.64;96775.72;5091978;28;20206;-63
2021/03/07 06:40:26;;;;;;;21.10;12.60;;;;;;;1.66;63.36;96775.56;5092022;28;20227;-64
2021/03/07 06:42:53;;;;;;;18.77;12.13;;;;;;;1.62;64.97;96772.66;5092206;28;20607;-65
2021/03/07 06:45:20;;;;;;;25.97;15.50;;;;;;;1.26;64.84;96773.19;5092030;28;20198;-64
2021/03/07 06:47:58;;;;;;;21.07;12.33;;;;;;;0.85;66.64;96778.63;5092031;28;20237;-64
2021/03/07 06:50:26;;;;;;;19.67;12.03;;;;;;;0.66;68.04;96776.09;5091537;28;20238;-64
2021/03/07 06:52:55;;;;;;;21.43;13.97;;;;;;;0.63;71.18;96781.63;5091922;28;20271;-65
2021/03/07 06:55:25;;;;;;;22.17;12.73;;;;;;;0.78;72.25;96771.97;5091936;28;20271;-64
2021/03/07 06:57:52;;;;;;;29.83;17.10;;;;;;;0.92;71.58;96775.28;5091808;28;20297;-64
2021/03/07 07:00:37;;;;;;;26.10;14.70;;;;;;;0.96;71.67;96767.00;5091547;28;20738;-63
2021/03/07 07:03:10;;;;;;;32.70;17.37;;;;;;;0.85;70.01;96776.06;5091612;28;20202;-62
2021/03/07 07:05:41;;;;;;;33.63;19.37;;;;;;;0.88;70.24;96769.78;5091610;28;20200;-64
2021/03/07 07:08:09;;;;;;;37.17;19.47;;;;;;;0.98;70.39;96772.69;5091991;28;20595;-64
2021/03/07 07:10:58;;;;;;;45.73;21.53;;;;;;;0.91;71.31;96768.56;5091511;28;20192;-64
2021/03/07 07:13:26;;;;;;;32.20;15.60;;;;;;;0.96;71.82;96767.00;5091362;28;20704;-65
2021/03/07 07:16:04;;;;;;;24.40;13.50;;;;;;;1.10;71.08;96772.84;5091510;28;20282;-66
2021/03/07 07:18:33;;;;;;;28.97;14.27;;;;;;;1.29;72.28;96764.34;5090664;28;20279;-65
2021/03/07 07:21:03;;;;;;;28.43;14.73;;;;;;;1.34;68.41;96763.72;5091434;28;20199;-64
2021/03/07 07:23:31;;;;;;;31.67;15.30;;;;;;;1.30;69.79;96763.31;5091454;28;20196;-64
2021/03/07 07:25:58;;;;;;;29.07;14.07;;;;;;;1.62;70.20;96762.41;5091263;28;20278;-64
2021/03/07 07:28:26;;;;;;;37.47;17.97;;;;;;;1.76;65.72;96767.44;5091340;28;20278;-64
2021/03/07 07:30:58;;;;;;;23.37;12.07;;;;;;;1.78;66.44;96770.59;5091273;28;20195;-65
2021/03/07 07:33:41;;;;;;;19.73;10.53;;;;;;;1.99;64.92;96762.59;5091092;28;20301;-65
2021/03/07 07:36:12;;;;;;;22.67;11.93;;;;;;;2.02;64.39;96769.84;5090976;28;20259;-65
2021/03/07 07:38:40;;;;;;;17.30;10.70;;;;;;;2.16;64.43;96763.63;5091201;28;20217;-65
2021/03/07 07:41:32;;;;;;;18.47;9.43;;;;;;;2.33;61.49;96758.78;5090995;28;20230;-65
2021/03/07 07:44:01;;;;;;;31.17;9.70;;;;;;;2.43;62.88;96754.75;5090802;28;20217;-64
2021/03/07 07:46:29;;;;;;;17.77;9.50;;;;;;;2.34;60.87;96755.22;5090832;28;20674;-64
2021/03/07 07:48:56;;;;;;;13.63;8.80;;;;;;;2.51;61.88;96754.47;5090748;28;20276;-64
2021/03/07 07:51:40;;;;;;;19.97;9.43;;;;;;;2.58;62.22;96751.84;5090839;28;20669;-64
2021/03/07 07:54:08;;;;;;;16.10;8.47;;;;;;;2.91;60.60;96757.44;5090635;28;20206;-64
2021/03/07 07:56:44;;;;;;;15.57;8.77;;;;;;;2.97;57.43;96750.66;5090830;28;20205;-65
2021/03/07 07:59:12;;;;;;;11.50;7.60;;;;;;;3.05;57.37;96745.25;5090517;28;20653;-65
2021/03/07 08:01:50;;;;;;;14.97;7.97;;;;;;;3.20;55.67;96745.66;5091012;28;20227;-65
2021/03/07 08:04:35;;;;;;;18.47;9.50;;;;;;;2.90;56.39;96743.03;5090733;28;20650;-64
2021/03/07 08:07:05;;;;;;;16.00;8.27;;;;;;;3.30;55.77;96735.66;5090635;28;20203;-64
2021/03/07 08:09:50;;;;;;;12.90;8.13;;;;;;;3.16;54.13;96734.25;5090521;28;20279;-64
2021/03/07 08:12:48;;;;;;;14.53;8.73;;;;;;;2.91;52.84;96733.53;5090802;28;20315;-65
2021/03/07 08:15:44;;;;;;;13.53;8.27;;;;;;;3.12;50.81;96727.97;5090184;28;20203;-63
2021/03/07 08:18:12;;;;;;;10.27;6.93;;;;;;;3.07;52.05;96724.50;5089904;28;20765;-63
2021/03/07 08:21:06;;;;;;;11.70;6.40;;;;;;;3.24;51.45;96715.97;5089664;28;20241;-64
2021/03/07 08:24:06;;;;;;;14.30;6.77;;;;;;;3.43;49.53;96719.31;5090194;28;20199;-64
2021/03/07 08:26:52;;;;;;;8.47;5.20;;;;;;;3.43;46.83;96709.81;5090346;28;20244;-64
2021/03/07 08:29:45;;;;;;;9.53;5.37;;;;;;;3.55;48.87;96707.28;5089701;28;20283;-64
2021/03/07 08:32:36;;;;;;;9.47;6.23;;;;;;;3.98;51.75;96698.56;5089910;28;20272;-64
2021/03/07 08:35:12;;;;;;;13.87;7.30;;;;;;;4.20;52.00;96692.66;5090063;28;20619;-65
2021/03/07 08:37:43;;;;;;;10.50;6.60;;;;;;;4.34;52.04;96686.25;5090096;28;20277;-65
2021/03/07 08:40:32;;;;;;;10.23;6.67;;;;;;;4.54;50.27;96678.19;5089943;28;20264;-64
2021/03/07 08:43:14;;;;;;;11.07;6.70;;;;;;;4.53;50.07;96683.59;5089668;28;20216;-64
2021/03/07 08:45:59;;;;;;;11.57;6.47;;;;;;;4.62;49.48;96677.09;5089653;28;20188;-64
2021/03/07 08:48:27;;;;;;;8.77;6.27;;;;;;;4.52;48.54;96677.66;5090153;28;20199;-65
2021/03/07 08:50:54;;;;;;;14.30;7.47;;;;;;;4.59;47.25;96662.06;5089344;28;20195;-65
2021/03/07 08:53:23;;;;;;;18.47;7.60;;;;;;;4.41;49.64;96659.66;5089630;28;20200;-65
2021/03/07 08:55:51;;;;;;;16.43;7.57;;;;;;;4.25;49.36;96659.31;5089834;28;20196;-65
2021/03/07 08:58:19;;;;;;;12.77;7.20;;;;;;;3.90;50.31;96649.00;5089433;28;20260;-63
2021/03/07 09:00:47;;;;;;;11.30;7.07;;;;;;;4.08;51.35;96645.56;5089245;28;20609;-64
2021/03/07 09:03:14;;;;;;;9.77;6.27;;;;;;;4.48;52.01;96632.78;5089565;28;20196;-64
2021/03/07 09:05:42;;;;;;;10.50;6.10;;;;;;;4.84;50.77;96630.91;5089358;28;20192;-65
2021/03/07 09:08:09;;;;;;;9.47;6.23;;;;;;;5.16;49.97;96627.66;5089732;28;20234;-64
2021/03/07 09:10:38;;;;;;;9.30;6.50;;;;;;;5.50;51.04;96625.16;5089621;28;20212;-64
2021/03/07 09:13:11;;;;;;;11.00;6.20;;;;;;;4.81;47.67;96621.84;5089743;28;20206;-63
2021/03/07 09:15:39;;;;;;;13.73;6.60;;;;;;;4.81;47.74;96621.06;5089628;28;20283;-64
2021/03/07 09:18:07;;;;;;;14.40;6.73;;;;;;;5.02;48.84;96615.28;5089166;28;20228;-64
2021/03/07 09:20:45;;;;;;;10.87;7.10;;;;;;;5.46;49.65;96616.31;5089727;28;20228;-64
2021/03/07 09:23:32;;;;;;;10.63;6.13;;;;;;;5.63;48.30;96602.41;5089729;28;20207;-64
2021/03/07 09:26:00;;;;;;;19.13;7.40;;;;;;;5.27;49.53;96602.88;5089296;28;20196;-63
2021/03/07 09:28:40;;;;;;;10.93;7.30;;;;;;;5.67;50.27;96597.59;5089316;28;20231;-63
2021/03/07 09:31:11;;;;;;;14.17;8.10;;;;;;;5.85;47.27;96591.41;5089608;28;20291;-64
2021/03/07 09:33:38;;;;;;;12.73;7.50;;;;;;;5.83;46.46;96581.31;5089309;28;20196;-62
2021/03/07 09:36:11;;;;;;;13.30;7.37;;;;;;;5.59;48.60;96574.75;5089421;28;20226;-63
2021/03/07 09:38:44;;;;;;;17.13;9.60;;;;;;;5.89;47.06;96575.25;5089107;28;20237;-63
2021/03/07 09:41:12;;;;;;;13.13;8.07;;;;;;;5.96;49.60;96572.50;5091428;28;20192;-64
2021/03/07 09:43:41;;;;;;;12.33;8.43;;;;;;;6.00;48.46;96565.84;5093096;28;20742;-62
2021/03/07 09:46:10;;;;;;;9.93;6.97;;;;;;;6.12;50.34;96560.59;5092804;28;20196;-62
2021/03/07 09:48:38;;;;;;;11.53;7.50;;;;;;;6.14;48.60;96561.13;5092762;28;20283;-63
2021/03/07 09:51:06;;;;;;;11.00;7.70;;;;;;;5.85;47.31;96556.06;5092782;28;20333;-62
2021/03/07 09:53:36;;;;;;;16.07;9.33;;;;;;;6.17;51.11;96552.91;5092549;28;20661;-63
2021/03/07 09:56:04;;;;;;;14.33;8.87;;;;;;;6.54;50.42;96548.72;5092631;28;20559;-63
2021/03/07 09:58:39;;;;;;;10.00;6.87;;;;;;;6.57;47.55;96539.72;5092622;28;20279;-64
2021/03/07 10:01:09;;;;;;;13.23;8.20;;;;;;;6.30;48.24;96540.44;5092208;28;20823;-64
2021/03/07 10:03:37;;;;;;;9.43;6.97;;;;;;;6.61;48.34;96536.41;5092399;28;20258;-65
2021/03/07 10:06:09;;;;;;;12.03;7.40;;;;;;;6.41;48.17;96538.75;5092218;28;20187;-63
2021/03/07 10:08:37;;;;;;;15.20;8.53;;;;;;;6.44;47.73;96528.72;5092733;28;20207;-64
2021/03/07 10:11:19;;;;;;;12.00;7.83;;;;;;;6.46;47.09;96523.31;5092201;28;20244;-64
2021/03/07 10:13:58;;;;;;;9.87;7.37;;;;;;;6.86;46.28;96523.75;5092286;28;20200;-62
2021/03/07 10:16:27;;;;;;;13.17;7.87;;;;;;;6.87;45.29;96524.53;5092223;28;20237;-63
2021/03/07 10:19:12;;;;;;;15.40;8.20;;;;;;;6.91;47.24;96516.06;5092538;28;20203;-66
2021/03/07 10:21:40;;;;;;;12.30;7.43;;;;;;;6.90;44.11;96509.31;5092158;28;20234;-62
2021/03/07 10:24:09;;;;;;;13.83;7.90;;;;;;;6.82;46.57;96508.97;5092326;28;20340;-62
2021/03/07 10:26:37;;;;;;;127.67;63.47;;;;;;;7.12;47.78;96500.72;5091994;28;20199;-63
2021/03/07 10:29:30;;;;;;;10.23;6.90;;;;;;;7.14;42.87;96493.50;5092091;28;20205;-63
2021/03/07 10:32:01;;;;;;;70.90;35.57;;;;;;;7.14;45.83;96485.72;5091881;28;20283;-64
2021/03/07 10:34:35;;;;;;;13.30;7.27;;;;;;;7.29;45.32;96484.06;5091877;28;20239;-65
2021/03/07 10:37:03;;;;;;;11.17;7.90;;;;;;;6.97;44.41;96474.75;5091851;28;20602;-63
2021/03/07 10:39:30;;;;;;;14.80;7.97;;;;;;;6.87;45.52;96468.44;5091812;28;20224;-63
2021/03/07 10:42:11;;;;;;;11.50;7.50;;;;;;;6.91;46.77;96468.75;5091676;28;20246;-65
2021/03/07 10:44:40;;;;;;;13.47;7.20;;;;;;;6.85;43.56;96459.41;5092151;28;20193;-63
2021/03/07 10:47:18;;;;;;;14.80;7.60;;;;;;;6.70;44.74;96454.09;5092824;28;20202;-62
2021/03/07 10:49:46;;;;;;;9.13;6.80;;;;;;;6.75;43.23;96454.94;5092013;28;20200;-63
2021/03/07 10:52:13;;;;;;;13.00;7.73;;;;;;;6.67;44.97;96445.06;5091019;28;20260;-65
2021/03/07 10:54:40;;;;;;;12.97;7.57;;;;;;;6.67;44.57;96450.22;5091433;28;20261;-64
2021/03/07 10:57:09;;;;;;;10.13;7.33;;;;;;;6.72;44.62;96433.97;5091428;28;20241;-64
2021/03/07 10:59:37;;;;;;;11.60;7.50;;;;;;;6.71;44.00;96429.84;5091220;28;20318;-64
2021/03/07 11:02:08;;;;;;;12.73;7.57;;;;;;;6.65;45.75;96416.09;5091528;28;20636;-64
2021/03/07 11:04:35;;;;;;;13.77;7.67;;;;;;;6.86;46.79;96404.13;5091297;28;20195;-64
2021/03/07 11:07:03;;;;;;;16.47;8.47;;;;;;;7.04;45.20;96400.38;5091857;28;20205;-63
2021/03/07 11:09:30;;;;;;;9.73;7.40;;;;;;;6.99;44.97;96398.53;5091358;28;20726;-64
2021/03/07 11:11:57;;;;;;;15.60;8.77;;;;;;;7.11;46.72;96388.03;5091150;28;20230;-64
2021/03/07 11:14:24;;;;;;;11.70;7.93;;;;;;;7.53;47.00;96381.00;5091477;28;20196;-64
2021/03/07 11:16:55;;;;;;;13.07;8.43;;;;;;;7.75;46.56;96375.69;5091024;28;20291;-64
2021/03/07 11:19:22;;;;;;;13.53;7.83;;;;;;;7.98;45.28;96374.47;5091100;28;20306;-64
2021/03/07 11:21:50;;;;;;;11.63;8.37;;;;;;;7.87;44.02;96368.47;5090980;28;20714;-64
2021/03/07 11:24:17;;;;;;;10.33;7.70;;;;;;;7.73;42.69;96364.81;5091070;28;20275;-63
2021/03/07 11:26:44;;;;;;;12.37;7.60;;;;;;;7.85;43.79;96362.78;5091087;28;20720;-64
2021/03/07 11:29:11;;;;;;;13.23;8.10;;;;;;;7.92;43.80;96359.97;5091275;28;20232;-63
2021/03/07 11:31:39;;;;;;;14.90;8.93;;;;;;;8.22;44.13;96363.38;5090737;28;20220;-63
2021/03/07 11:34:07;;;;;;;12.33;7.50;;;;;;;8.49;42.49;96350.25;5091345;28;20195;-64
2021/03/07 11:36:35;;;;;;;12.80;8.43;;;;;;;8.40;42.09;96341.44;5090992;28;20192;-63
2021/03/07 11:39:02;;;;;;;12.33;8.17;;;;;;;8.46;43.42;96337.81;5090537;28;20238;-65
2021/03/07 11:41:29;;;;;;;12.57;8.10;;;;;;;8.67;43.55;96336.00;5090771;28;20787;-65